Time;durP1;ratioP1;P1;durP2;ratioP2;P2;SDS_P1;SDS_P2;PMS_P1;PMS_P2;Temp;Humidity;BMP_temperature;BMP_pressure;BME280_temperature;BME280_humidity;BME280_pressure;Samples;Min_cycle;Max_cycle;Signal;HPM_P1;HPM_P2
2023/01/10 00:00:34;;;;;;;14.55;2.63;;;5.90;99.90;;;;;;5025909;28;20104;-70
2023/01/10 00:03:04;;;;;;;16.25;3.55;;;5.80;99.90;;;;;;5023771;28;20524;-70
2023/01/10 00:05:30;;;;;;;15.05;2.88;;;5.80;99.90;;;;;;5008379;28;20211;-70
2023/01/10 00:07:57;;;;;;;14.50;2.90;;;5.80;99.90;;;;;;5006582;28;20126;-70
2023/01/10 00:10:24;;;;;;;13.88;2.90;;;5.80;99.90;;;;;;5026017;28;20402;-70
2023/01/10 00:15:35;;;;;;;12.52;3.38;;;5.70;99.90;;;;;;5007169;28;20064;-70
2023/01/10 00:18:00;;;;;;;14.00;3.47;;;5.70;99.90;;;;;;5024038;28;20179;-70
2023/01/10 00:20:26;;;;;;;14.55;3.55;;;5.60;99.90;;;;;;5025714;28;20045;-70
2023/01/10 00:22:52;;;;;;;12.77;3.15;;;6.50;99.90;;;;;;5024334;28;20057;-71
2023/01/10 00:25:20;;;;;;;14.82;3.95;;;5.50;99.90;;;;;;5024503;28;20509;-71
2023/01/10 00:28:03;;;;;;;14.57;3.25;;;5.60;99.90;;;;;;5005914;28;20445;-70
2023/01/10 00:30:29;;;;;;;18.15;3.42;;;5.60;99.90;;;;;;5025304;28;20097;-70
2023/01/10 00:32:55;;;;;;;15.57;3.22;;;5.60;99.90;;;;;;5023718;28;20042;-70
2023/01/10 00:35:21;;;;;;;17.17;3.15;;;5.60;99.90;;;;;;5025175;28;20507;-70
2023/01/10 00:37:47;;;;;;;17.65;3.53;;;5.70;99.90;;;;;;5024332;28;20081;-70
2023/01/10 00:40:13;;;;;;;14.82;3.47;;;5.70;99.90;;;;;;5006714;28;20146;-70
2023/01/10 00:45:24;;;;;;;14.50;3.55;;;5.80;99.90;;;;;;5006073;28;20041;-70
2023/01/10 00:47:50;;;;;;;21.52;3.97;;;6.40;99.90;;;;;;4991102;28;20052;-70
2023/01/10 00:50:17;;;;;;;18.17;4.18;;;5.90;99.90;;;;;;5024293;28;20053;-71
2023/01/10 00:52:43;;;;;;;18.67;3.85;;;5.80;99.90;;;;;;5006291;28;20037;-70
2023/01/10 00:55:09;;;;;;;16.85;3.70;;;5.80;99.90;;;;;;5005705;28;20044;-70
2023/01/10 00:57:34;;;;;;;21.63;4.07;;;5.80;99.90;;;;;;5023654;28;20128;-70
2023/01/10 01:00:00;;;;;;;20.20;3.95;;;6.40;99.90;;;;;;5006924;28;20075;-70
2023/01/10 01:02:26;;;;;;;18.48;3.80;;;6.00;99.90;;;;;;5023834;28;20057;-70
2023/01/10 01:04:51;;;;;;;16.83;3.75;;;6.00;99.90;;;;;;5024684;28;20037;-70
2023/01/10 01:07:17;;;;;;;14.15;3.45;;;5.90;99.90;;;;;;5023206;28;20045;-70
2023/01/10 01:12:26;;;;;;;18.48;3.25;;;6.10;99.90;;;;;;5016270;28;20405;-70
2023/01/10 01:14:52;;;;;;;19.33;3.63;;;6.10;99.90;;;;;;5024423;28;20052;-70
2023/01/10 01:17:18;;;;;;;14.43;3.20;;;6.20;99.90;;;;;;5021518;28;20474;-70
2023/01/10 01:19:44;;;;;;;14.80;3.25;;;6.20;99.90;;;;;;5005461;28;20494;-70
2023/01/10 01:22:10;;;;;;;19.48;3.80;;;6.20;99.90;;;;;;5003256;28;20038;-70
2023/01/10 01:24:35;;;;;;;18.30;3.42;;;7.60;99.90;;;;;;5005578;28;20157;-70
2023/01/10 01:27:01;;;;;;;20.50;4.43;;;6.20;99.90;;;;;;4990554;28;20050;-70
2023/01/10 01:29:26;;;;;;;15.23;3.33;;;6.20;99.90;;;;;;5010578;28;20054;-70
2023/01/10 01:31:52;;;;;;;19.98;3.67;;;6.90;99.90;;;;;;5029068;28;20084;-70
2023/01/10 01:34:18;;;;;;;17.65;3.50;;;6.30;99.90;;;;;;5028625;28;20148;-70
2023/01/10 01:36:43;;;;;;;20.30;3.65;;;6.20;99.90;;;;;;5028198;28;20054;-70
2023/01/10 01:39:09;;;;;;;21.75;3.78;;;6.30;99.90;;;;;;5028084;28;20041;-70
2023/01/10 01:44:19;;;;;;;19.25;3.35;;;6.40;99.90;;;;;;5027742;28;20049;-70
2023/01/10 01:47:03;;;;;;;16.90;3.72;;;6.50;99.90;;;;;;5028277;28;20053;-70
2023/01/10 01:49:31;;;;;;;15.27;3.25;;;6.50;99.90;;;;;;5030091;28;20051;-70
2023/01/10 01:52:02;;;;;;;13.57;3.72;;;6.50;99.90;;;;;;5026942;28;20483;-70
2023/01/10 01:54:29;;;;;;;16.58;3.85;;;6.50;99.90;;;;;;5028225;28;20099;-70
2023/01/10 01:57:07;;;;;;;18.33;3.67;;;6.30;99.90;;;;;;5008890;28;20094;-70
2023/01/10 01:59:38;;;;;;;18.42;3.72;;;6.30;99.90;;;;;;5029565;28;20049;-70
2023/01/10 02:02:08;;;;;;;21.25;4.05;;;6.20;99.90;;;;;;5010152;28;20133;-70
2023/01/10 02:04:54;;;;;;;14.93;3.38;;;6.20;99.90;;;;;;5027036;28;20048;-70
2023/01/10 02:07:22;;;;;;;17.08;3.33;;;6.20;99.90;;;;;;5026190;28;20041;-70
2023/01/10 02:09:53;;;;;;;18.35;3.17;;;7.30;99.90;;;;;;4994368;28;20565;-70
2023/01/10 02:12:19;;;;;;;16.67;3.40;;;6.20;99.90;;;;;;5009564;28;20402;-70
2023/01/10 02:14:48;;;;;;;16.40;3.38;;;6.10;99.90;;;;;;5028273;28;20049;-70
2023/01/10 02:17:14;;;;;;;20.38;3.33;;;6.10;99.90;;;;;;5025611;28;20401;-70
2023/01/10 02:19:42;;;;;;;18.88;3.83;;;6.10;99.90;;;;;;5008679;28;20138;-70
2023/01/10 02:22:26;;;;;;;17.40;3.45;;;6.20;99.90;;;;;;5025341;28;20115;-70
2023/01/10 02:25:09;;;;;;;17.88;3.83;;;6.20;99.90;;;;;;4992566;28;20053;-70
2023/01/10 02:27:36;;;;;;;18.83;4.05;;;6.20;99.90;;;;;;5006962;28;20057;-70
2023/01/10 02:30:13;;;;;;;17.67;3.58;;;6.20;99.90;;;;;;5029888;28;20061;-70
2023/01/10 02:32:49;;;;;;;17.88;3.55;;;6.20;99.90;;;;;;5009526;28;20058;-70
2023/01/10 02:35:46;;;;;;;16.55;3.20;;;6.30;99.90;;;;;;5027932;28;20045;-70
2023/01/10 02:38:34;;;;;;;17.17;4.10;;;6.40;99.90;;;;;;4982307;28;20447;-70
2023/01/10 02:41:14;;;;;;;17.02;3.80;;;6.30;99.90;;;;;;5026184;28;20469;-70
2023/01/10 02:44:10;;;;;;;15.68;3.13;;;6.20;99.90;;;;;;4989445;28;20460;-70
2023/01/10 02:46:37;;;;;;;15.15;3.50;;;6.20;99.90;;;;;;5002357;28;20067;-70
2023/01/10 02:49:03;;;;;;;14.98;3.53;;;7.20;99.90;;;;;;5009150;28;20084;-70
2023/01/10 02:51:32;;;;;;;15.18;3.42;;;6.30;99.90;;;;;;5027764;28;20065;-70
2023/01/10 02:54:15;;;;;;;16.42;3.72;;;6.30;99.90;;;;;;5027828;28;20091;-70
2023/01/10 02:57:13;;;;;;;16.85;3.65;;;6.20;99.90;;;;;;5008838;28;20481;-70
2023/01/10 03:00:06;;;;;;;18.35;3.33;;;6.30;99.90;;;;;;4994448;28;20057;-69
2023/01/10 03:02:57;;;;;;;15.77;4.55;;;6.20;99.90;;;;;;5026165;28;20047;-70
2023/01/10 03:05:41;;;;;;;13.70;3.30;;;6.20;99.90;;;;;;5026729;28;20199;-70
2023/01/10 03:08:26;;;;;;;18.23;3.67;;;6.30;99.90;;;;;;5025209;28;20382;-70
2023/01/10 03:10:58;;;;;;;16.98;3.65;;;6.40;99.90;;;;;;5026974;28;20049;-70
2023/01/10 03:13:47;;;;;;;19.02;4.25;;;6.30;99.90;;;;;;5004078;28;20509;-71
2023/01/10 03:16:18;;;;;;;14.27;3.58;;;6.30;99.90;;;;;;5004698;28;20049;-69
2023/01/10 03:18:50;;;;;;;17.50;2.95;;;6.30;99.90;;;;;;5022174;28;20089;-69
2023/01/10 03:21:19;;;;;;;18.08;3.53;;;6.30;99.90;;;;;;5027045;28;20051;-69
2023/01/10 03:23:48;;;;;;;14.55;3.72;;;6.30;99.90;;;;;;5026103;28;20069;-70
2023/01/10 03:26:16;;;;;;;18.88;3.65;;;7.40;99.90;;;;;;5008267;28;20112;-70
2023/01/10 03:28:49;;;;;;;15.27;3.70;;;7.30;99.90;;;;;;5026181;28;20060;-70
2023/01/10 03:31:34;;;;;;;14.70;3.13;;;6.80;99.90;;;;;;5026465;28;20183;-70
2023/01/10 03:34:00;;;;;;;17.15;4.07;;;6.50;99.90;;;;;;5007596;28;20067;-70
2023/01/10 03:36:44;;;;;;;15.95;3.67;;;6.40;99.90;;;;;;5008549;28;20079;-69
2023/01/10 03:39:50;;;;;;;14.85;3.28;;;6.40;99.90;;;;;;5025621;28;20069;-70
2023/01/10 03:42:24;;;;;;;21.52;4.68;;;6.40;99.90;;;;;;5024003;28;20463;-70
2023/01/10 03:44:57;;;;;;;15.15;3.75;;;6.50;99.90;;;;;;5008956;28;20049;-70
2023/01/10 03:47:31;;;;;;;14.13;3.75;;;6.50;99.90;;;;;;5025780;28;20053;-69
2023/01/10 03:50:02;;;;;;;17.83;3.42;;;6.40;99.90;;;;;;5006537;28;20077;-69
2023/01/10 03:52:29;;;;;;;14.63;3.78;;;6.50;99.90;;;;;;5025499;28;20485;-70
2023/01/10 03:54:57;;;;;;;11.55;2.97;;;6.50;99.90;;;;;;5007515;28;20401;-70
2023/01/10 03:57:23;;;;;;;16.75;3.17;;;6.50;99.90;;;;;;5006420;28;20297;-70
2023/01/10 03:59:53;;;;;;;22.50;3.67;;;6.50;99.90;;;;;;5007273;28;20045;-70
2023/01/10 04:02:19;;;;;;;17.35;3.83;;;6.50;99.90;;;;;;5008279;28;20063;-70
2023/01/10 04:04:45;;;;;;;16.52;3.50;;;6.50;99.90;;;;;;5026447;28;20049;-70
2023/01/10 04:07:11;;;;;;;19.90;3.70;;;6.50;99.90;;;;;;5024953;28;20382;-71
2023/01/10 04:09:36;;;;;;;12.98;3.42;;;6.50;99.90;;;;;;5022021;28;20042;-70
2023/01/10 04:12:02;;;;;;;15.25;3.55;;;7.70;99.90;;;;;;5006501;28;20049;-70
2023/01/10 04:14:28;;;;;;;15.05;3.03;;;6.50;99.90;;;;;;5025874;28;20091;-70
2023/01/10 04:16:54;;;;;;;15.25;3.45;;;6.50;99.90;;;;;;5006676;28;20049;-70
2023/01/10 04:19:20;;;;;;;16.90;3.67;;;6.50;99.90;;;;;;5015684;28;20125;-70
2023/01/10 04:21:45;;;;;;;16.58;3.72;;;6.50;99.90;;;;;;5025683;28;20147;-70
2023/01/10 04:24:11;;;;;;;20.20;3.85;;;7.40;99.90;;;;;;5025337;28;20472;-70
2023/01/10 04:26:36;;;;;;;15.13;3.40;;;6.50;99.90;;;;;;5025699;28;20049;-70
2023/01/10 04:29:02;;;;;;;16.73;3.40;;;6.50;99.90;;;;;;5006439;28;20051;-70
2023/01/10 04:31:28;;;;;;;14.27;3.75;;;5.10;99.90;;;;;;5024663;28;20366;-70
2023/01/10 04:33:54;;;;;;;22.42;3.80;;;6.50;99.90;;;;;;5006993;28;20053;-70
2023/01/10 04:36:19;;;;;;;13.75;3.38;;;6.50;99.90;;;;;;5024447;28;20041;-70
2023/01/10 04:38:45;;;;;;;15.90;3.78;;;6.50;99.90;;;;;;5024213;28;20272;-71
2023/01/10 04:41:10;;;;;;;12.02;2.88;;;6.50;99.90;;;;;;5023626;28;20084;-70
2023/01/10 04:43:36;;;;;;;20.02;3.92;;;6.50;99.90;;;;;;5027406;28;20045;-70
2023/01/10 04:46:02;;;;;;;18.05;3.65;;;6.60;99.90;;;;;;5024210;28;20041;-70
2023/01/10 04:48:28;;;;;;;18.77;3.58;;;6.40;99.90;;;;;;5006713;28;20049;-70
2023/01/10 04:50:54;;;;;;;14.32;3.45;;;6.30;99.90;;;;;;5025044;28;20482;-71
2023/01/10 04:53:20;;;;;;;16.20;3.63;;;6.40;99.90;;;;;;5023437;28;20098;-71
2023/01/10 04:55:46;;;;;;;14.57;3.75;;;6.40;99.90;;;;;;5025075;28;20119;-70
2023/01/10 04:58:12;;;;;;;16.63;3.20;;;6.40;99.90;;;;;;5023192;28;20049;-70
2023/01/10 05:00:38;;;;;;;17.92;3.35;;;7.90;99.90;;;;;;5023958;28;20096;-70
2023/01/10 05:03:04;;;;;;;14.45;3.03;;;7.80;99.90;;;;;;5006398;28;20049;-70
2023/01/10 05:05:30;;;;;;;18.48;3.30;;;6.40;99.90;;;;;;5024586;28;20049;-71
2023/01/10 05:07:56;;;;;;;14.90;3.10;;;7.40;99.90;;;;;;5023718;28;20053;-71
2023/01/10 05:10:21;;;;;;;15.90;3.55;;;6.50;99.90;;;;;;5007958;28;20071;-70
2023/01/10 05:12:47;;;;;;;20.60;4.07;;;6.50;99.90;;;;;;5022410;28;20080;-70
2023/01/10 05:15:13;;;;;;;15.60;3.55;;;7.60;99.90;;;;;;5024748;28;20045;-70
2023/01/10 05:17:39;;;;;;;10.75;3.17;;;6.40;99.90;;;;;;5024080;28;20107;-70
2023/01/10 05:20:06;;;;;;;15.32;3.15;;;6.30;99.90;;;;;;5024717;28;20388;-70
2023/01/10 05:22:31;;;;;;;19.70;4.03;;;6.30;99.90;;;;;;5024704;28;20055;-70
2023/01/10 05:24:57;;;;;;;19.05;4.38;;;6.30;99.90;;;;;;5025558;28;20496;-70
2023/01/10 05:27:23;;;;;;;15.65;3.78;;;6.30;99.90;;;;;;5007485;28;20049;-70
2023/01/10 05:29:48;;;;;;;14.88;3.38;;;7.60;99.90;;;;;;4993301;28;20046;-70
2023/01/10 05:32:14;;;;;;;17.30;4.13;;;7.50;99.90;;;;;;5024107;28;20050;-70
2023/01/10 05:34:40;;;;;;;15.48;3.20;;;6.40;99.90;;;;;;5006761;28;20141;-70
2023/01/10 05:37:06;;;;;;;14.88;3.50;;;6.40;99.90;;;;;;5023970;28;20532;-70
2023/01/10 05:39:31;;;;;;;14.07;3.47;;;7.20;99.90;;;;;;5025165;28;20121;-70
2023/01/10 05:41:57;;;;;;;20.83;4.07;;;6.40;99.90;;;;;;5006088;28;20555;-70
2023/01/10 05:44:23;;;;;;;15.20;3.20;;;6.40;99.90;;;;;;4992949;28;20045;-70
2023/01/10 05:46:48;;;;;;;14.18;3.33;;;8.00;99.90;;;;;;5025236;28;20053;-70
2023/01/10 05:49:14;;;;;;;14.98;3.63;;;7.60;99.90;;;;;;5023317;28;20580;-70
2023/01/10 05:51:41;;;;;;;15.00;3.40;;;6.50;99.90;;;;;;5024688;28;20057;-70
2023/01/10 05:54:07;;;;;;;11.48;3.03;;;7.30;99.90;;;;;;5023044;28;20057;-70
2023/01/10 05:56:32;;;;;;;14.30;3.55;;;6.60;99.90;;;;;;5023015;28;20547;-70
2023/01/10 05:58:58;;;;;;;14.02;3.25;;;6.60;99.90;;;;;;5024124;28;20121;-70
2023/01/10 06:01:24;;;;;;;13.55;2.92;;;7.70;99.90;;;;;;5024219;28;20128;-70
2023/01/10 06:03:49;;;;;;;13.50;3.30;;;6.70;99.90;;;;;;5005696;28;20567;-70
2023/01/10 06:06:15;;;;;;;13.60;3.00;;;6.60;99.90;;;;;;5005925;28;20049;-70
2023/01/10 06:08:41;;;;;;;16.00;3.10;;;6.50;99.90;;;;;;5023561;28;20160;-70
2023/01/10 06:11:07;;;;;;;13.25;3.38;;;6.50;99.90;;;;;;5005887;28;20049;-70
2023/01/10 06:13:32;;;;;;;17.27;3.80;;;6.40;99.90;;;;;;5009114;28;20140;-70
2023/01/10 06:15:58;;;;;;;16.10;3.40;;;7.30;99.90;;;;;;5027086;28;20144;-70
2023/01/10 06:18:24;;;;;;;13.23;2.78;;;6.30;99.90;;;;;;5017598;28;20133;-71
2023/01/10 06:20:50;;;;;;;12.80;3.30;;;6.30;99.90;;;;;;5025168;28;20052;-70
2023/01/10 06:23:15;;;;;;;10.48;2.63;;;7.70;99.90;;;;;;5025852;28;20061;-70
2023/01/10 06:25:41;;;;;;;14.30;3.33;;;6.40;99.90;;;;;;5027717;28;20045;-71
2023/01/10 06:28:12;;;;;;;13.10;2.97;;;6.40;99.90;;;;;;5008184;28;20041;-70
2023/01/10 06:30:40;;;;;;;10.05;2.88;;;7.20;99.90;;;;;;5026420;28;20049;-70
2023/01/10 06:33:08;;;;;;;14.35;3.10;;;6.30;99.90;;;;;;5026687;28;20608;-70
2023/01/10 06:35:34;;;;;;;12.50;2.85;;;7.50;99.90;;;;;;4992243;28;20057;-70
2023/01/10 06:38:00;;;;;;;17.13;3.13;;;6.20;99.90;;;;;;5027670;28;20103;-70
2023/01/10 06:40:27;;;;;;;12.25;2.88;;;6.20;99.90;;;;;;5027933;28;20053;-70
2023/01/10 06:42:53;;;;;;;10.80;2.40;;;6.20;99.90;;;;;;4991357;28;20127;-70
2023/01/10 06:45:19;;;;;;;8.82;2.65;;;6.20;99.90;;;;;;5026641;28;20037;-70
2023/01/10 06:47:45;;;;;;;12.27;2.80;;;7.60;99.90;;;;;;5026467;28;20045;-71
2023/01/10 06:50:12;;;;;;;7.97;2.80;;;6.10;99.90;;;;;;5026594;28;20049;-75
2023/01/10 06:52:38;;;;;;;13.15;3.40;;;6.00;99.90;;;;;;5007837;28;20056;-75
2023/01/10 06:55:05;;;;;;;13.02;3.00;;;7.40;99.90;;;;;;5026545;28;20037;-75
2023/01/10 06:57:34;;;;;;;12.88;3.05;;;6.10;99.90;;;;;;5008997;28;20123;-75
2023/01/10 07:00:05;;;;;;;8.27;2.40;;;6.10;99.90;;;;;;5026595;28;20114;-75
2023/01/10 07:02:30;;;;;;;10.73;2.80;;;6.10;99.90;;;;;;5026467;28;20058;-75
2023/01/10 07:04:56;;;;;;;8.75;2.70;;;6.10;99.90;;;;;;5026348;28;20075;-75
2023/01/10 07:07:22;;;;;;;9.75;2.88;;;6.20;99.90;;;;;;5026809;28;20085;-75
2023/01/10 07:09:47;;;;;;;9.65;2.47;;;6.10;99.90;;;;;;5026597;28;20061;-75
2023/01/10 07:12:13;;;;;;;14.68;2.78;;;6.20;99.90;;;;;;5025112;28;20056;-75
2023/01/10 07:14:39;;;;;;;9.63;2.40;;;6.20;99.90;;;;;;5009168;28;20128;-75
2023/01/10 07:17:05;;;;;;;15.85;3.08;;;6.20;99.90;;;;;;5007243;28;20139;-75
2023/01/10 07:19:33;;;;;;;13.35;3.28;;;6.40;99.90;;;;;;5008114;28;20446;-75
2023/01/10 07:21:59;;;;;;;12.00;3.25;;;6.30;99.90;;;;;;5025796;28;20150;-76
2023/01/10 07:24:25;;;;;;;12.60;2.70;;;6.30;99.90;;;;;;5008088;28;20085;-76
2023/01/10 07:26:55;;;;;;;15.25;3.50;;;7.70;99.90;;;;;;4991714;28;20073;-76
2023/01/10 07:29:20;;;;;;;15.75;3.53;;;6.40;99.90;;;;;;5026699;28;20583;-76
2023/01/10 07:31:46;;;;;;;14.68;3.17;;;7.70;99.90;;;;;;5008941;28;20089;-76
2023/01/10 07:34:11;;;;;;;11.15;3.30;;;6.50;99.90;;;;;;5024784;28;20089;-76
2023/01/10 07:36:37;;;;;;;18.00;4.03;;;6.50;99.90;;;;;;5026803;28;20509;-76
2023/01/10 07:39:03;;;;;;;14.98;3.38;;;6.40;99.90;;;;;;5006842;28;20056;-77
2023/01/10 07:41:28;;;;;;;16.98;4.25;;;6.50;99.90;;;;;;5024411;28;20050;-76
2023/01/10 07:43:54;;;;;;;14.98;3.70;;;6.50;99.90;;;;;;5026023;28;20068;-77
2023/01/10 07:46:20;;;;;;;22.17;4.70;;;6.50;99.90;;;;;;5008282;28;20053;-76
2023/01/10 07:48:45;;;;;;;22.20;4.15;;;7.30;99.90;;;;;;5026311;28;20467;-76
2023/01/10 07:51:11;;;;;;;19.00;4.25;;;6.50;99.90;;;;;;5025525;28;20053;-76
2023/01/10 07:53:37;;;;;;;20.73;4.70;;;7.10;99.90;;;;;;5026087;28;20045;-76
2023/01/10 07:56:03;;;;;;;16.73;4.55;;;7.30;99.90;;;;;;5023790;28;20153;-76
2023/01/10 07:58:29;;;;;;;18.33;5.10;;;6.60;99.90;;;;;;5025653;28;20164;-76
2023/01/10 08:01:00;;;;;;;20.73;5.25;;;6.60;99.90;;;;;;5026760;28;20167;-73
2023/01/10 08:03:26;;;;;;;26.60;5.43;;;6.60;99.90;;;;;;5006850;28;20057;-75
2023/01/10 08:06:00;;;;;;;24.92;5.05;;;6.80;99.90;;;;;;5025966;28;20539;-75
2023/01/10 08:08:27;;;;;;;15.55;4.35;;;6.50;99.90;;;;;;5006930;28;20053;-78
2023/01/10 08:10:52;;;;;;;19.83;4.95;;;7.40;99.90;;;;;;5025850;28;20061;-77
2023/01/10 08:13:18;;;;;;;25.38;5.15;;;7.20;99.90;;;;;;5024183;28;20131;-75
2023/01/10 08:15:45;;;;;;;16.92;4.25;;;6.50;99.90;;;;;;5007281;28;20049;-75
2023/01/10 08:18:11;;;;;;;23.85;4.75;;;6.50;99.90;;;;;;5004803;28;20045;-75
2023/01/10 08:20:37;;;;;;;20.70;4.63;;;6.60;99.90;;;;;;5008391;28;20127;-75
2023/01/10 08:23:03;;;;;;;20.92;4.70;;;6.60;99.90;;;;;;4990067;28;20108;-73
2023/01/10 08:25:29;;;;;;;19.42;4.60;;;6.50;99.90;;;;;;5002078;28;20140;-74
2023/01/10 08:27:55;;;;;;;24.33;4.53;;;7.10;99.90;;;;;;5023646;28;20503;-75
2023/01/10 08:30:21;;;;;;;23.27;4.80;;;7.70;99.90;;;;;;4991057;28;20095;-74
2023/01/10 08:32:46;;;;;;;22.00;4.47;;;6.70;99.90;;;;;;5024860;28;20053;-75
2023/01/10 08:35:12;;;;;;;27.45;5.00;;;7.90;99.90;;;;;;5024231;28;20540;-74
2023/01/10 08:37:37;;;;;;;25.50;4.45;;;6.80;99.90;;;;;;5024330;28;20045;-74
2023/01/10 08:40:04;;;;;;;24.67;4.75;;;7.20;99.90;;;;;;5024234;28;20037;-74
2023/01/10 08:42:29;;;;;;;24.45;5.30;;;7.00;99.90;;;;;;5017592;28;20072;-76
2023/01/10 08:44:55;;;;;;;29.55;6.13;;;7.60;99.90;;;;;;5005369;28;20450;-76
2023/01/10 08:47:21;;;;;;;22.80;4.40;;;8.30;99.90;;;;;;4994610;28;20041;-76
2023/01/10 08:49:48;;;;;;;19.20;4.72;;;6.90;99.90;;;;;;5019656;28;20176;-76
2023/01/10 08:52:14;;;;;;;23.58;5.03;;;7.30;99.90;;;;;;5023590;28;20435;-76
2023/01/10 08:54:40;;;;;;;18.60;4.18;;;8.20;99.90;;;;;;5007221;28;20049;-77
2023/01/10 08:57:06;;;;;;;24.80;4.55;;;7.20;99.90;;;;;;5023747;28;20099;-76
2023/01/10 08:59:31;;;;;;;25.60;5.10;;;7.20;99.90;;;;;;5024980;28;20077;-76
2023/01/10 09:01:57;;;;;;;22.73;4.70;;;8.00;99.90;;;;;;5006662;28;20049;-76
2023/01/10 09:04:23;;;;;;;23.40;4.95;;;9.10;99.90;;;;;;5007826;28;20457;-76
2023/01/10 09:06:49;;;;;;;20.77;4.70;;;8.60;99.90;;;;;;5024677;28;20454;-76
2023/01/10 09:09:14;;;;;;;24.30;4.30;;;7.30;99.90;;;;;;5024766;28;20120;-76
2023/01/10 09:11:40;;;;;;;20.65;4.75;;;7.20;99.90;;;;;;5023855;28;20076;-76
2023/01/10 09:14:06;;;;;;;20.25;4.78;;;7.20;99.90;;;;;;5006268;28;20056;-76
2023/01/10 09:16:32;;;;;;;28.85;5.65;;;8.50;99.90;;;;;;5007495;28;20046;-76
2023/01/10 09:18:58;;;;;;;14.95;3.90;;;7.30;99.90;;;;;;5008877;28;20093;-76
2023/01/10 09:21:23;;;;;;;19.48;4.55;;;7.30;99.90;;;;;;5020113;28;20042;-76
2023/01/10 09:23:49;;;;;;;25.35;4.75;;;8.50;99.90;;;;;;5024742;28;20527;-76
2023/01/10 09:26:15;;;;;;;19.10;4.20;;;7.40;99.90;;;;;;5003950;28;20080;-76
2023/01/10 09:28:40;;;;;;;21.15;4.47;;;9.00;99.90;;;;;;5006792;28;20045;-76
2023/01/10 09:31:07;;;;;;;18.88;4.20;;;7.50;99.90;;;;;;5024795;28;20051;-77
2023/01/10 09:33:33;;;;;;;18.88;4.38;;;7.40;99.90;;;;;;5024337;28;20156;-76
2023/01/10 09:35:59;;;;;;;26.55;5.38;;;7.40;99.90;;;;;;5024471;28;20564;-77
2023/01/10 09:38:25;;;;;;;17.33;3.80;;;7.30;99.90;;;;;;5024366;28;20046;-76
2023/01/10 09:40:53;;;;;;;19.02;5.55;;;8.50;99.90;;;;;;5006462;28;20046;-76
2023/01/10 09:43:50;;;;;;;20.15;4.57;;;7.30;99.90;;;;;;5023457;28;20132;-77
2023/01/10 09:46:21;;;;;;;24.60;4.47;;;7.30;99.90;;;;;;5009261;28;20145;-76
2023/01/10 09:48:59;;;;;;;22.27;5.25;;;7.30;99.90;;;;;;5009660;28;20053;-76
2023/01/10 09:51:31;;;;;;;31.38;5.57;;;7.30;99.90;;;;;;5028334;28;20053;-77
2023/01/10 09:53:59;;;;;;;19.48;4.53;;;7.40;99.90;;;;;;5027233;28;20049;-76
2023/01/10 09:56:27;;;;;;;18.15;4.30;;;8.40;99.90;;;;;;5009101;28;20053;-76
2023/01/10 09:58:53;;;;;;;17.55;4.40;;;9.00;99.90;;;;;;5028618;28;20053;-76
2023/01/10 10:01:24;;;;;;;28.83;5.35;;;8.70;99.90;;;;;;5027327;28;20056;-76
2023/01/10 10:04:01;;;;;;;18.55;4.07;;;8.00;99.90;;;;;;4994564;28;20111;-76
2023/01/10 10:06:27;;;;;;;18.73;5.25;;;8.10;99.90;;;;;;5010610;28;20053;-76
2023/01/10 10:08:53;;;;;;;17.17;4.05;;;7.80;99.90;;;;;;5009795;28;20052;-77
2023/01/10 10:11:25;;;;;;;20.13;4.68;;;7.80;99.90;;;;;;5026530;28;20053;-76
2023/01/10 10:14:12;;;;;;;17.08;4.68;;;8.00;99.90;;;;;;5028382;28;20049;-76
2023/01/10 10:16:44;;;;;;;20.05;4.38;;;8.10;99.90;;;;;;5009804;28;20489;-76
2023/01/10 10:19:33;;;;;;;22.75;4.93;;;8.20;99.90;;;;;;5011415;28;20108;-76
2023/01/10 10:22:05;;;;;;;22.58;4.70;;;8.20;99.90;;;;;;5009054;28;20498;-76
2023/01/10 10:24:52;;;;;;;19.65;4.20;;;8.50;99.90;;;;;;5028003;28;20057;-75
2023/01/10 10:27:23;;;;;;;16.85;4.10;;;8.30;99.90;;;;;;5026911;28;20045;-75
2023/01/10 10:30:53;;;;;;;17.77;4.57;;;8.20;99.90;;;;;;5010282;28;20056;-75
2023/01/10 10:34:09;;;;;;;19.92;4.50;;;8.20;99.90;;;;;;4915443;29;20103;-75
2023/01/10 10:36:51;;;;;;;18.48;4.32;;;8.10;99.90;;;;;;4894236;29;20052;-75
2023/01/10 10:39:22;;;;;;;21.70;4.18;;;8.00;99.90;;;;;;5007953;28;20054;-75
2023/01/10 10:41:51;;;;;;;21.23;4.40;;;8.00;99.90;;;;;;5013324;28;20489;-75
2023/01/10 10:44:38;;;;;;;19.40;4.00;;;8.50;99.90;;;;;;5008576;28;20136;-75
2023/01/10 10:47:20;;;;;;;17.80;4.40;;;8.10;99.90;;;;;;5008775;28;20379;-75
2023/01/10 10:49:49;;;;;;;23.27;4.50;;;8.00;99.90;;;;;;5006396;28;20049;-75
2023/01/10 10:52:29;;;;;;;17.60;4.55;;;8.40;99.90;;;;;;4991218;28;20052;-76
2023/01/10 10:54:55;;;;;;;18.52;4.32;;;8.10;99.90;;;;;;5026486;28;20132;-76
2023/01/10 10:57:24;;;;;;;19.75;4.30;;;8.10;99.90;;;;;;5008410;28;20905;-74
2023/01/10 10:59:50;;;;;;;23.23;5.00;;;8.60;99.90;;;;;;5012443;28;20477;-74
2023/01/10 11:02:30;;;;;;;21.73;4.70;;;9.20;99.90;;;;;;5008669;28;20049;-67
2023/01/10 11:05:00;;;;;;;18.95;4.35;;;8.80;99.90;;;;;;5004451;28;20056;-68
2023/01/10 11:07:32;;;;;;;22.13;4.07;;;8.00;99.90;;;;;;5024075;28;20482;-68
2023/01/10 11:12:31;;;;;;;25.77;5.18;;;8.30;99.90;;;;;;5021691;28;20588;-67
2023/01/10 11:14:58;;;;;;;20.30;5.85;;;8.00;99.90;;;;;;5005695;28;20053;-70
2023/01/10 11:17:29;;;;;;;21.40;5.18;;;9.10;99.90;;;;;;5021916;28;20079;-70
2023/01/10 11:19:59;;;;;;;19.33;4.95;;;8.10;99.90;;;;;;5000026;28;20053;-70
2023/01/10 11:22:28;;;;;;;24.20;5.80;;;8.00;99.90;;;;;;5008030;28;20045;-68
2023/01/10 11:25:01;;;;;;;20.20;4.88;;;8.10;99.90;;;;;;4990735;28;20414;-68
2023/01/10 11:27:45;;;;;;;21.20;5.72;;;8.10;99.90;;;;;;5023740;28;20543;-74
2023/01/10 11:30:22;;;;;;;22.85;6.25;;;8.20;99.90;;;;;;5004459;28;20052;-74
2023/01/10 11:32:56;;;;;;;25.75;6.50;;;8.20;99.90;;;;;;5001848;28;20129;-74
2023/01/10 11:35:54;;;;;;;27.90;7.05;;;8.20;99.90;;;;;;5026654;28;20374;-75
2023/01/10 11:38:28;;;;;;;22.10;5.32;;;8.20;99.90;;;;;;5026055;28;20409;-75
2023/01/10 11:40:57;;;;;;;21.80;6.72;;;8.20;99.90;;;;;;5024999;28;20088;-75
2023/01/10 11:44:03;;;;;;;25.90;6.55;;;8.20;99.90;;;;;;5008059;28;20297;-75
2023/01/10 11:46:29;;;;;;;22.25;6.53;;;8.20;99.90;;;;;;5016900;28;20057;-75
2023/01/10 11:49:18;;;;;;;23.20;7.32;;;9.10;99.90;;;;;;5009441;28;20042;-74
2023/01/10 11:51:59;;;;;;;23.23;6.32;;;8.00;99.90;;;;;;4991423;28;20521;-75
2023/01/10 11:54:27;;;;;;;31.48;7.65;;;8.10;99.90;;;;;;5016744;28;20397;-74
2023/01/10 11:57:00;;;;;;;27.45;7.45;;;8.40;99.90;;;;;;5006881;28;20053;-75
2023/01/10 11:59:27;;;;;;;29.13;6.80;;;8.30;99.90;;;;;;5008375;28;20049;-76
2023/01/10 12:02:14;;;;;;;24.65;7.28;;;8.00;99.90;;;;;;5024776;28;20052;-75
2023/01/10 12:04:44;;;;;;;24.02;7.78;;;8.10;99.90;;;;;;5025750;28;20053;-75
2023/01/10 12:07:10;;;;;;;22.02;7.30;;;8.10;99.90;;;;;;5025947;28;20084;-75
2023/01/10 12:09:43;;;;;;;28.63;8.52;;;8.00;99.90;;;;;;5024747;28;20100;-75
2023/01/10 12:12:17;;;;;;;20.95;6.80;;;7.90;99.90;;;;;;5006776;28;20087;-75
2023/01/10 12:14:44;;;;;;;27.88;7.35;;;7.90;99.90;;;;;;5025600;28;20111;-76
2023/01/10 12:17:28;;;;;;;22.50;6.57;;;7.90;99.90;;;;;;5025070;28;20057;-72
2023/01/10 12:19:59;;;;;;;22.15;6.25;;;7.90;99.90;;;;;;5009041;28;20136;-73
2023/01/10 12:22:34;;;;;;;23.08;6.07;;;8.00;99.90;;;;;;4990878;28;20559;-72
2023/01/10 12:25:04;;;;;;;24.40;7.07;;;7.90;99.90;;;;;;4990839;28;20053;-72
2023/01/10 12:27:31;;;;;;;28.25;6.90;;;7.90;99.90;;;;;;5006582;28;20383;-72
2023/01/10 12:30:17;;;;;;;25.08;6.85;;;7.90;99.90;;;;;;5006783;28;20049;-74
2023/01/10 12:32:54;;;;;;;23.17;6.68;;;7.80;99.90;;;;;;5007346;28;20052;-72
2023/01/10 12:35:36;;;;;;;35.92;7.47;;;7.90;99.90;;;;;;5025307;28;20045;-72
2023/01/10 12:38:12;;;;;;;24.00;6.93;;;7.90;99.90;;;;;;5023358;28;20053;-73
2023/01/10 12:40:56;;;;;;;21.73;7.28;;;7.90;99.90;;;;;;5007729;28;20061;-72
2023/01/10 12:46:30;;;;;;;23.15;7.10;;;7.80;99.90;;;;;;5024767;28;20056;-72
2023/01/10 12:49:23;;;;;;;23.40;7.60;;;7.90;99.90;;;;;;5006602;28;20053;-73
2023/01/10 12:51:51;;;;;;;24.75;6.72;;;7.80;99.90;;;;;;5024355;28;20432;-72
2023/01/10 12:54:23;;;;;;;26.55;7.32;;;7.80;99.90;;;;;;5023928;28;20034;-75
2023/01/10 12:56:50;;;;;;;25.60;6.82;;;8.40;99.90;;;;;;5005411;28;20128;-73
2023/01/10 12:59:27;;;;;;;30.83;7.20;;;7.80;99.90;;;;;;5005791;28;20049;-74
2023/01/10 13:02:00;;;;;;;23.35;7.20;;;8.00;99.90;;;;;;5024763;28;20488;-73
2023/01/10 13:04:29;;;;;;;26.20;6.63;;;8.00;99.90;;;;;;5007228;28;20398;-74
2023/01/10 13:06:56;;;;;;;22.70;5.68;;;7.70;99.90;;;;;;5024643;28;20417;-75
2023/01/10 13:09:26;;;;;;;27.67;6.65;;;7.70;99.90;;;;;;5006315;28;20476;-74
2023/01/10 13:12:00;;;;;;;30.42;7.05;;;8.50;99.90;;;;;;5020862;28;20053;-74
2023/01/10 13:14:32;;;;;;;21.98;6.45;;;7.60;99.90;;;;;;5024666;28;20056;-74
2023/01/10 13:17:18;;;;;;;21.15;6.10;;;7.70;99.90;;;;;;4990685;28;20057;-74
2023/01/10 13:20:15;;;;;;;23.65;5.20;;;7.60;99.90;;;;;;4990848;28;20359;-73